Terminal Aerodrome Forecast
Issued by NWS

Home | Current Version | Previous Version | Graphics & Text | Print | Product List | Glossary On
Versions: 1 2 3 4 5 6 7 8 9 10 11 12 13 14 15 16 17 18 19 20 21 22 23 24 25 26
000
FTUS43 KBIS 140522
TAFMOT
TAF
KMOT 140522Z 1406/1506 VRB04KT P6SM SKC
     FM141600 10005KT P6SM FEW070 FEW250
     FM141900 12011KT P6SM SCT250
     FM150300 13010KT P6SM -SHRA BKN100=

USA.gov is the U.S. government's official web portal to all federal, state and local government web resources and services.